HST,Max TemperatureF,Mean TemperatureF,Min TemperatureF,Max Dew PointF,MeanDew PointF,Min DewpointF,Max Humidity, Mean Humidity, Min Humidity, Max Sea Level PressureIn, Mean Sea Level PressureIn, Min Sea Level PressureIn, Max VisibilityMiles, Mean VisibilityMiles, Min VisibilityMiles, Max Wind SpeedMPH, Mean Wind SpeedMPH, Max Gust SpeedMPH,PrecipitationIn, CloudCover, Events, WindDirDegrees
2013-10-1,84,78,72,69,67,66,84,70,56,30.05,30.01,29.95,10,10,10,10,3,17,0.00,2,,84
2013-10-2,84,78,73,71,67,66,84,71,55,30.02,29.98,29.93,10,10,10,13,3,21,0.00,3,,94
2013-10-3,82,76,71,69,67,65,84,72,56,30.03,29.99,29.94,10,10,7,12,3,22,0.00,3,,99
2013-10-4,84,77,70,67,66,64,84,69,49,30.04,30.01,29.96,10,10,10,12,3,21,0.00,2,,97
2013-10-5,84,78,71,68,66,62,90,68,53,30.04,30.01,29.96,10,10,8,12,4,24,0.00,4,,64
2013-10-6,82,76,71,67,66,64,81,70,56,30.04,30.00,29.94,10,10,10,9,3,17,0.00,2,,81
2013-10-7,86,78,70,69,66,65,87,69,49,30.09,30.04,30.00,10,10,10,12,4,21,0.00,2,,85
2013-10-8,84,78,71,68,66,64,84,71,51,30.10,30.07,30.01,10,10,10,14,3,24,0.00,2,,72
2013-10-9,87,79,71,67,65,63,84,66,44,30.07,30.03,29.99,10,10,10,10,3,21,0.00,0,,74
2013-10-10,84,77,70,70,66,64,84,71,53,30.04,30.00,29.95,10,10,10,13,4,21,0.00,1,,101
2013-10-11,82,75,68,72,70,65,90,79,65,30.06,30.01,29.96,10,10,10,12,3,,0.00,2,Rain,195
2013-10-12,82,76,69,72,69,64,90,77,60,30.05,30.01,29.96,10,10,10,9,2,,0.00,1,,219
2013-10-13,82,76,69,70,68,66,93,77,62,30.03,29.99,29.93,10,10,10,12,2,,0.00,2,,172
2013-10-14,82,75,68,72,68,66,100,85,65,30.01,29.97,29.92,10,8,0,14,2,22,1.49,3,Fog-Rain,354
2013-10-15,82,74,66,70,68,65,100,79,65,30.02,29.97,29.93,10,10,10,10,3,,0.00,2,Rain,222
2013-10-16,82,75,68,68,66,64,90,73,53,30.04,29.98,29.93,10,10,10,9,2,,0.00,1,,113
2013-10-17,82,74,66,70,67,64,97,79,62,30.03,29.99,29.95,10,10,10,13,3,,0.00,0,,232
2013-10-18,82,75,68,70,67,64,93,78,58,30.01,29.95,29.90,10,10,10,20,3,,0.00,0,,282
2013-10-19,82,73,64,69,65,62,93,77,52,29.94,29.91,29.87,10,10,10,15,4,18,0.00,2,,323
2013-10-20,82,74,66,69,66,63,96,76,52,29.99,29.93,29.88,10,10,10,14,3,,0.00,5,Rain,279
2013-10-21,81,74,66,66,64,61,94,75,50,30.03,29.97,29.92,10,10,10,13,3,,0.00,1,,195
2013-10-22,81,74,66,71,66,64,93,77,60,30.02,29.99,29.94,10,10,9,10,3,,0.01,3,Rain,18
2013-10-23,82,75,68,69,65,63,90,74,51,30.04,30.00,29.95,10,10,10,12,3,17,0.00,1,,112
2013-10-24,82,74,66,70,66,64,93,78,60,30.04,29.99,29.93,10,10,10,13,2,21,0.00,2,,106
2013-10-25,82,74,66,72,68,64,94,80,67,30.05,30.00,29.94,10,10,10,12,3,21,0.00,1,,123
2013-10-26,82,76,69,72,70,66,93,83,67,30.06,30.02,29.98,10,10,10,10,2,,0.00,1,,161
2013-10-27,81,76,70,73,71,68,100,86,74,30.07,30.02,29.96,10,10,4,10,2,,0.02,2,Rain,160
2013-10-28,82,75,68,73,69,67,100,82,67,30.08,30.03,29.96,10,10,10,12,2,17,0.01,2,,117
2013-10-29,82,75,68,69,66,64,94,77,54,30.10,30.06,30.00,10,10,10,15,2,23,0.00,1,,95
2013-10-30,82,74,66,70,66,64,90,77,60,30.14,30.08,30.03,10,10,10,9,3,16,0.00,2,,99
2013-10-31,82,76,69,72,67,66,90,77,62,30.13,30.09,30.05,10,10,10,12,3,20,0.00,2,Rain,86